sensor_id;sensor_type;location;lat;lon;timestamp;pressure;altitude;pressure_sealevel;temperature;humidity
73516;BME280;61763;51.416;5.442;2022-12-29T00:01:36;100022.97;;;9.62;100.00
73516;BME280;61763;51.416;5.442;2022-12-29T00:04:03;100025.75;;;9.60;100.00
73516;BME280;61763;51.416;5.442;2022-12-29T00:06:29;100030.28;;;9.60;100.00
73516;BME280;61763;51.416;5.442;2022-12-29T00:08:55;100028.44;;;9.60;100.00
73516;BME280;61763;51.416;5.442;2022-12-29T00:11:23;100017.16;;;9.54;100.00
73516;BME280;61763;51.416;5.442;2022-12-29T00:13:50;100024.47;;;9.52;100.00
73516;BME280;61763;51.416;5.442;2022-12-29T00:16:35;100004.91;;;9.48;100.00
73516;BME280;61763;51.416;5.442;2022-12-29T00:19:02;100006.94;;;9.44;100.00
73516;BME280;61763;51.416;5.442;2022-12-29T00:21:28;100002.75;;;9.39;100.00
73516;BME280;61763;51.416;5.442;2022-12-29T00:24:19;99996.00;;;9.32;100.00
73516;BME280;61763;51.416;5.442;2022-12-29T00:26:53;99981.50;;;9.34;100.00
73516;BME280;61763;51.416;5.442;2022-12-29T00:29:38;99975.66;;;9.42;100.00
73516;BME280;61763;51.416;5.442;2022-12-29T00:32:22;99968.81;;;9.36;100.00
73516;BME280;61763;51.416;5.442;2022-12-29T00:35:09;99986.13;;;9.32;100.00
73516;BME280;61763;51.416;5.442;2022-12-29T00:37:42;99991.50;;;9.32;100.00
73516;BME280;61763;51.416;5.442;2022-12-29T00:40:27;99984.81;;;9.39;100.00
73516;BME280;61763;51.416;5.442;2022-12-29T00:43:10;99982.88;;;9.41;100.00
73516;BME280;61763;51.416;5.442;2022-12-29T00:45:55;99961.81;;;9.48;100.00
73516;BME280;61763;51.416;5.442;2022-12-29T00:48:20;99967.13;;;9.50;100.00
73516;BME280;61763;51.416;5.442;2022-12-29T00:51:06;99961.28;;;9.57;100.00
73516;BME280;61763;51.416;5.442;2022-12-29T00:53:33;99963.09;;;9.57;100.00
73516;BME280;61763;51.416;5.442;2022-12-29T00:55:58;99961.38;;;9.56;100.00
73516;BME280;61763;51.416;5.442;2022-12-29T00:58:30;99953.00;;;9.60;100.00
73516;BME280;61763;51.416;5.442;2022-12-29T01:01:03;99941.44;;;9.58;100.00
73516;BME280;61763;51.416;5.442;2022-12-29T01:03:29;99946.09;;;9.71;100.00
73516;BME280;61763;51.416;5.442;2022-12-29T01:05:54;99930.31;;;9.79;100.00
73516;BME280;61763;51.416;5.442;2022-12-29T01:08:19;99931.75;;;9.85;100.00
73516;BME280;61763;51.416;5.442;2022-12-29T01:10:45;99923.50;;;9.73;100.00
73516;BME280;61763;51.416;5.442;2022-12-29T01:13:10;99918.13;;;9.73;100.00
73516;BME280;61763;51.416;5.442;2022-12-29T01:15:35;99923.69;;;9.70;100.00
73516;BME280;61763;51.416;5.442;2022-12-29T01:18:01;99932.34;;;9.75;100.00
73516;BME280;61763;51.416;5.442;2022-12-29T01:20:26;99929.56;;;9.77;100.00
73516;BME280;61763;51.416;5.442;2022-12-29T01:22:53;99947.75;;;9.88;100.00
73516;BME280;61763;51.416;5.442;2022-12-29T01:25:19;99938.72;;;9.89;100.00
73516;BME280;61763;51.416;5.442;2022-12-29T01:27:44;99926.97;;;10.04;100.00
73516;BME280;61763;51.416;5.442;2022-12-29T01:30:10;99922.34;;;10.06;100.00
73516;BME280;61763;51.416;5.442;2022-12-29T01:32:35;99917.16;;;10.03;100.00
73516;BME280;61763;51.416;5.442;2022-12-29T01:35:00;99916.47;;;9.99;100.00
73516;BME280;61763;51.416;5.442;2022-12-29T01:37:26;99924.28;;;10.04;100.00
73516;BME280;61763;51.416;5.442;2022-12-29T01:39:52;99916.38;;;10.15;100.00
73516;BME280;61763;51.416;5.442;2022-12-29T01:42:19;99915.22;;;10.20;100.00
73516;BME280;61763;51.416;5.442;2022-12-29T01:49:58;99904.13;;;10.24;100.00
73516;BME280;61763;51.416;5.442;2022-12-29T01:52:26;99896.53;;;10.31;100.00
73516;BME280;61763;51.416;5.442;2022-12-29T01:54:55;99915.59;;;10.28;100.00
73516;BME280;61763;51.416;5.442;2022-12-29T01:57:26;99905.66;;;10.28;100.00
73516;BME280;61763;51.416;5.442;2022-12-29T02:00:00;99909.03;;;10.32;100.00
73516;BME280;61763;51.416;5.442;2022-12-29T02:02:27;99895.97;;;10.40;100.00
73516;BME280;61763;51.416;5.442;2022-12-29T02:04:55;99925.63;;;10.40;100.00
73516;BME280;61763;51.416;5.442;2022-12-29T02:07:26;99927.25;;;10.43;100.00
73516;BME280;61763;51.416;5.442;2022-12-29T02:09:55;99919.63;;;10.49;100.00
73516;BME280;61763;51.416;5.442;2022-12-29T02:12:23;99930.41;;;10.49;100.00
73516;BME280;61763;51.416;5.442;2022-12-29T02:14:54;99925.91;;;10.50;100.00
73516;BME280;61763;51.416;5.442;2022-12-29T02:30:51;99915.31;;;10.32;100.00
73516;BME280;61763;51.416;5.442;2022-12-29T02:44:54;99891.34;;;10.28;100.00
73516;BME280;61763;51.416;5.442;2022-12-29T02:52:34;99893.75;;;10.18;100.00
73516;BME280;61763;51.416;5.442;2022-12-29T02:55:01;99891.03;;;10.18;100.00
73516;BME280;61763;51.416;5.442;2022-12-29T02:57:34;99869.00;;;10.11;100.00
73516;BME280;61763;51.416;5.442;2022-12-29T03:08:23;99875.28;;;10.12;100.00
73516;BME280;61763;51.416;5.442;2022-12-29T03:11:03;99869.88;;;10.12;100.00
73516;BME280;61763;51.416;5.442;2022-12-29T03:13:52;99872.69;;;10.10;100.00
73516;BME280;61763;51.416;5.442;2022-12-29T03:16:48;99877.38;;;10.07;100.00
73516;BME280;61763;51.416;5.442;2022-12-29T03:19:51;99870.19;;;10.07;100.00
73516;BME280;61763;51.416;5.442;2022-12-29T03:22:15;99874.31;;;9.98;100.00
73516;BME280;61763;51.416;5.442;2022-12-29T03:25:20;99861.41;;;9.89;100.00
73516;BME280;61763;51.416;5.442;2022-12-29T03:27:55;99867.59;;;9.77;100.00
73516;BME280;61763;51.416;5.442;2022-12-29T03:30:22;99872.50;;;9.70;100.00
73516;BME280;61763;51.416;5.442;2022-12-29T03:32:53;99860.38;;;9.63;100.00
73516;BME280;61763;51.416;5.442;2022-12-29T03:35:21;99878.25;;;9.64;100.00
73516;BME280;61763;51.416;5.442;2022-12-29T03:38:09;99878.63;;;9.58;100.00
73516;BME280;61763;51.416;5.442;2022-12-29T03:40:38;99869.78;;;9.56;100.00
73516;BME280;61763;51.416;5.442;2022-12-29T03:43:06;99882.47;;;9.54;100.00
73516;BME280;61763;51.416;5.442;2022-12-29T03:45:31;99872.94;;;9.48;100.00
73516;BME280;61763;51.416;5.442;2022-12-29T03:47:57;99862.94;;;9.36;100.00
73516;BME280;61763;51.416;5.442;2022-12-29T03:50:22;99866.00;;;9.29;100.00
73516;BME280;61763;51.416;5.442;2022-12-29T03:52:47;99860.81;;;9.26;100.00
73516;BME280;61763;51.416;5.442;2022-12-29T03:55:13;99881.44;;;9.26;100.00
73516;BME280;61763;51.416;5.442;2022-12-29T03:57:38;99878.28;;;9.19;100.00
73516;BME280;61763;51.416;5.442;2022-12-29T04:00:05;99886.06;;;9.24;100.00
73516;BME280;61763;51.416;5.442;2022-12-29T04:02:31;99906.56;;;9.26;100.00
73516;BME280;61763;51.416;5.442;2022-12-29T04:04:56;99906.94;;;9.20;100.00
73516;BME280;61763;51.416;5.442;2022-12-29T04:07:21;99912.00;;;9.10;100.00
73516;BME280;61763;51.416;5.442;2022-12-29T04:09:47;99887.88;;;9.09;100.00
73516;BME280;61763;51.416;5.442;2022-12-29T04:12:12;99880.16;;;9.03;100.00
73516;BME280;61763;51.416;5.442;2022-12-29T04:14:39;99901.25;;;8.94;100.00
73516;BME280;61763;51.416;5.442;2022-12-29T04:17:05;99903.47;;;8.88;100.00
73516;BME280;61763;51.416;5.442;2022-12-29T04:19:31;99906.09;;;8.73;100.00
73516;BME280;61763;51.416;5.442;2022-12-29T04:21:56;99919.81;;;8.69;100.00
73516;BME280;61763;51.416;5.442;2022-12-29T04:24:21;99923.00;;;8.59;100.00
73516;BME280;61763;51.416;5.442;2022-12-29T04:26:47;99925.78;;;8.58;100.00
73516;BME280;61763;51.416;5.442;2022-12-29T04:29:12;99918.59;;;8.58;100.00
73516;BME280;61763;51.416;5.442;2022-12-29T04:31:37;99915.47;;;8.50;100.00
73516;BME280;61763;51.416;5.442;2022-12-29T04:34:03;99905.66;;;8.49;100.00
73516;BME280;61763;51.416;5.442;2022-12-29T04:36:28;99916.22;;;8.52;100.00
73516;BME280;61763;51.416;5.442;2022-12-29T04:38:54;99909.53;;;8.59;100.00
73516;BME280;61763;51.416;5.442;2022-12-29T04:41:19;99919.00;;;8.67;100.00
73516;BME280;61763;51.416;5.442;2022-12-29T04:43:44;99924.72;;;8.76;100.00
73516;BME280;61763;51.416;5.442;2022-12-29T04:46:09;99929.34;;;8.58;100.00
73516;BME280;61763;51.416;5.442;2022-12-29T04:48:35;99939.66;;;8.50;100.00
73516;BME280;61763;51.416;5.442;2022-12-29T04:51:00;99931.06;;;8.59;100.00
73516;BME280;61763;51.416;5.442;2022-12-29T04:53:27;99946.44;;;8.57;100.00
73516;BME280;61763;51.416;5.442;2022-12-29T04:55:53;99943.00;;;8.38;100.00
73516;BME280;61763;51.416;5.442;2022-12-29T04:58:19;99941.41;;;8.51;100.00
73516;BME280;61763;51.416;5.442;2022-12-29T05:00:44;99957.44;;;8.53;100.00
73516;BME280;61763;51.416;5.442;2022-12-29T05:03:10;99954.94;;;8.50;100.00
73516;BME280;61763;51.416;5.442;2022-12-29T05:05:36;99965.47;;;8.37;100.00
73516;BME280;61763;51.416;5.442;2022-12-29T05:08:01;99958.84;;;8.44;100.00
73516;BME280;61763;51.416;5.442;2022-12-29T05:10:27;99970.19;;;8.49;100.00
73516;BME280;61763;51.416;5.442;2022-12-29T05:12:52;99982.84;;;8.47;100.00
73516;BME280;61763;51.416;5.442;2022-12-29T05:15:18;99982.38;;;8.39;100.00
73516;BME280;61763;51.416;5.442;2022-12-29T05:17:43;99967.03;;;8.41;100.00
73516;BME280;61763;51.416;5.442;2022-12-29T05:20:09;99982.69;;;8.50;100.00
73516;BME280;61763;51.416;5.442;2022-12-29T05:22:36;99976.28;;;8.53;100.00
73516;BME280;61763;51.416;5.442;2022-12-29T05:25:01;99984.00;;;8.59;100.00
73516;BME280;61763;51.416;5.442;2022-12-29T05:27:27;99983.38;;;8.70;100.00
73516;BME280;61763;51.416;5.442;2022-12-29T05:29:52;99981.56;;;8.70;100.00
73516;BME280;61763;51.416;5.442;2022-12-29T05:32:18;99974.81;;;8.79;100.00
73516;BME280;61763;51.416;5.442;2022-12-29T05:34:43;99966.97;;;8.90;100.00
73516;BME280;61763;51.416;5.442;2022-12-29T05:37:09;99973.75;;;8.98;100.00
73516;BME280;61763;51.416;5.442;2022-12-29T05:39:34;99981.44;;;9.04;100.00
73516;BME280;61763;51.416;5.442;2022-12-29T05:41:59;99989.72;;;9.01;100.00
73516;BME280;61763;51.416;5.442;2022-12-29T05:44:25;99997.28;;;9.10;100.00
73516;BME280;61763;51.416;5.442;2022-12-29T05:46:50;99992.13;;;9.05;100.00
73516;BME280;61763;51.416;5.442;2022-12-29T05:49:16;99995.53;;;9.09;100.00
73516;BME280;61763;51.416;5.442;2022-12-29T05:51:42;100011.16;;;9.02;100.00
73516;BME280;61763;51.416;5.442;2022-12-29T05:54:07;100012.53;;;9.09;100.00
73516;BME280;61763;51.416;5.442;2022-12-29T05:56:34;100003.50;;;9.10;100.00
73516;BME280;61763;51.416;5.442;2022-12-29T05:58:59;100014.88;;;9.16;100.00
73516;BME280;61763;51.416;5.442;2022-12-29T06:01:25;100005.75;;;9.18;100.00
73516;BME280;61763;51.416;5.442;2022-12-29T06:03:50;100017.22;;;9.22;100.00
73516;BME280;61763;51.416;5.442;2022-12-29T06:06:16;100016.88;;;9.28;100.00
73516;BME280;61763;51.416;5.442;2022-12-29T06:08:41;100010.25;;;9.34;100.00
73516;BME280;61763;51.416;5.442;2022-12-29T06:11:07;100007.66;;;9.32;100.00
73516;BME280;61763;51.416;5.442;2022-12-29T06:13:33;99998.19;;;9.41;100.00
73516;BME280;61763;51.416;5.442;2022-12-29T06:15:59;100009.44;;;9.47;99.91
73516;BME280;61763;51.416;5.442;2022-12-29T06:18:24;100004.22;;;9.44;100.00
73516;BME280;61763;51.416;5.442;2022-12-29T06:20:49;100008.66;;;9.45;99.00
73516;BME280;61763;51.416;5.442;2022-12-29T06:23:15;100017.69;;;9.44;98.45
73516;BME280;61763;51.416;5.442;2022-12-29T06:25:41;99995.88;;;9.49;97.97
73516;BME280;61763;51.416;5.442;2022-12-29T06:28:07;100007.53;;;9.50;97.51
73516;BME280;61763;51.416;5.442;2022-12-29T06:30:32;100013.88;;;9.49;98.37
73516;BME280;61763;51.416;5.442;2022-12-29T06:32:58;100017.88;;;9.41;99.29
73516;BME280;61763;51.416;5.442;2022-12-29T06:35:24;100002.81;;;9.53;98.50
73516;BME280;61763;51.416;5.442;2022-12-29T06:37:49;100009.16;;;9.52;98.85
73516;BME280;61763;51.416;5.442;2022-12-29T06:40:14;100001.88;;;9.54;98.00
73516;BME280;61763;51.416;5.442;2022-12-29T06:42:40;100005.97;;;9.45;98.66
73516;BME280;61763;51.416;5.442;2022-12-29T06:45:06;100013.06;;;9.46;98.35
73516;BME280;61763;51.416;5.442;2022-12-29T06:47:33;99994.50;;;9.42;97.94
73516;BME280;61763;51.416;5.442;2022-12-29T06:49:59;100008.75;;;9.44;96.52
73516;BME280;61763;51.416;5.442;2022-12-29T06:52:24;99991.09;;;9.54;95.84
73516;BME280;61763;51.416;5.442;2022-12-29T06:54:50;100009.84;;;9.56;95.81
73516;BME280;61763;51.416;5.442;2022-12-29T06:57:15;100005.00;;;9.46;96.31
73516;BME280;61763;51.416;5.442;2022-12-29T06:59:40;99994.09;;;9.34;96.94
73516;BME280;61763;51.416;5.442;2022-12-29T07:02:06;99991.94;;;9.24;97.14
73516;BME280;61763;51.416;5.442;2022-12-29T07:04:31;100007.97;;;9.42;93.55
73516;BME280;61763;51.416;5.442;2022-12-29T07:06:57;100021.63;;;9.39;93.65
73516;BME280;61763;51.416;5.442;2022-12-29T07:09:22;100035.00;;;9.40;93.54
73516;BME280;61763;51.416;5.442;2022-12-29T07:11:47;100034.22;;;9.38;92.87
73516;BME280;61763;51.416;5.442;2022-12-29T07:14:13;100031.91;;;9.32;93.64
73516;BME280;61763;51.416;5.442;2022-12-29T07:16:38;100040.38;;;9.40;91.46
73516;BME280;61763;51.416;5.442;2022-12-29T07:19:04;100040.09;;;9.45;90.48
73516;BME280;61763;51.416;5.442;2022-12-29T07:21:29;100034.31;;;9.37;90.74
73516;BME280;61763;51.416;5.442;2022-12-29T07:23:55;100046.13;;;9.34;90.87
73516;BME280;61763;51.416;5.442;2022-12-29T07:26:21;100050.66;;;9.34;89.94
73516;BME280;61763;51.416;5.442;2022-12-29T07:28:46;100050.03;;;9.28;90.07
73516;BME280;61763;51.416;5.442;2022-12-29T07:31:17;100055.69;;;9.40;88.96
73516;BME280;61763;51.416;5.442;2022-12-29T07:33:44;100064.44;;;9.43;89.21
73516;BME280;61763;51.416;5.442;2022-12-29T07:36:10;100056.78;;;9.52;88.02
73516;BME280;61763;51.416;5.442;2022-12-29T07:38:35;100049.91;;;9.62;88.17
73516;BME280;61763;51.416;5.442;2022-12-29T07:41:01;100071.63;;;9.59;88.99
73516;BME280;61763;51.416;5.442;2022-12-29T07:43:27;100059.97;;;9.58;89.37
73516;BME280;61763;51.416;5.442;2022-12-29T07:45:52;100050.19;;;9.57;87.65
73516;BME280;61763;51.416;5.442;2022-12-29T07:48:18;100051.13;;;9.56;87.94
73516;BME280;61763;51.416;5.442;2022-12-29T07:50:43;100054.81;;;9.70;86.58
73516;BME280;61763;51.416;5.442;2022-12-29T07:53:09;100054.59;;;9.58;87.91
73516;BME280;61763;51.416;5.442;2022-12-29T07:55:34;100047.38;;;9.59;87.50
73516;BME280;61763;51.416;5.442;2022-12-29T07:58:00;100056.50;;;9.56;87.96
73516;BME280;61763;51.416;5.442;2022-12-29T08:00:25;100069.22;;;9.54;88.03
73516;BME280;61763;51.416;5.442;2022-12-29T08:02:50;100058.56;;;9.67;86.12
73516;BME280;61763;51.416;5.442;2022-12-29T08:05:16;100057.78;;;9.65;86.59
73516;BME280;61763;51.416;5.442;2022-12-29T08:07:45;100059.97;;;9.58;86.99
73516;BME280;61763;51.416;5.442;2022-12-29T08:10:12;100060.59;;;9.63;85.26
73516;BME280;61763;51.416;5.442;2022-12-29T08:12:38;100052.03;;;9.71;83.77
73516;BME280;61763;51.416;5.442;2022-12-29T08:15:05;100064.28;;;9.77;83.36
73516;BME280;61763;51.416;5.442;2022-12-29T08:17:30;100075.16;;;9.75;83.41
73516;BME280;61763;51.416;5.442;2022-12-29T08:19:55;100078.69;;;9.76;83.55
73516;BME280;61763;51.416;5.442;2022-12-29T08:22:23;100096.81;;;9.74;84.16
73516;BME280;61763;51.416;5.442;2022-12-29T08:24:48;100088.63;;;9.75;83.79
73516;BME280;61763;51.416;5.442;2022-12-29T08:27:14;100085.06;;;9.75;83.83
73516;BME280;61763;51.416;5.442;2022-12-29T08:29:39;100090.47;;;9.75;84.12
73516;BME280;61763;51.416;5.442;2022-12-29T08:32:05;100102.78;;;9.79;84.20
73516;BME280;61763;51.416;5.442;2022-12-29T08:34:32;100101.44;;;9.72;85.01
73516;BME280;61763;51.416;5.442;2022-12-29T08:36:57;100084.81;;;9.79;84.10
73516;BME280;61763;51.416;5.442;2022-12-29T08:39:23;100084.53;;;9.84;83.73
73516;BME280;61763;51.416;5.442;2022-12-29T08:41:48;100091.94;;;9.80;84.28
73516;BME280;61763;51.416;5.442;2022-12-29T08:44:13;100089.47;;;9.76;84.30
73516;BME280;61763;51.416;5.442;2022-12-29T08:46:39;100089.00;;;9.69;85.15
73516;BME280;61763;51.416;5.442;2022-12-29T08:49:05;100101.34;;;9.73;85.26
73516;BME280;61763;51.416;5.442;2022-12-29T08:51:30;100100.97;;;9.79;83.98
73516;BME280;61763;51.416;5.442;2022-12-29T08:53:56;100078.19;;;9.85;83.15
73516;BME280;61763;51.416;5.442;2022-12-29T08:56:22;100088.50;;;9.93;82.89
73516;BME280;61763;51.416;5.442;2022-12-29T08:58:49;100081.25;;;9.93;82.76
73516;BME280;61763;51.416;5.442;2022-12-29T09:01:15;100098.03;;;9.98;82.31
73516;BME280;61763;51.416;5.442;2022-12-29T09:03:40;100095.06;;;10.03;80.70
73516;BME280;61763;51.416;5.442;2022-12-29T09:06:05;100091.25;;;10.07;80.51
73516;BME280;61763;51.416;5.442;2022-12-29T09:08:31;100092.09;;;10.08;80.31
73516;BME280;61763;51.416;5.442;2022-12-29T09:11:05;100086.59;;;10.09;80.88
73516;BME280;61763;51.416;5.442;2022-12-29T09:13:31;100088.53;;;10.22;79.33
73516;BME280;61763;51.416;5.442;2022-12-29T09:15:58;100086.84;;;10.21;80.84
73516;BME280;61763;51.416;5.442;2022-12-29T09:18:24;100096.81;;;10.18;80.59
73516;BME280;61763;51.416;5.442;2022-12-29T09:20:56;100109.34;;;10.20;80.66
73516;BME280;61763;51.416;5.442;2022-12-29T09:23:21;100100.09;;;10.09;81.59
73516;BME280;61763;51.416;5.442;2022-12-29T09:25:47;100117.91;;;10.12;81.03
73516;BME280;61763;51.416;5.442;2022-12-29T09:28:12;100121.66;;;10.09;81.86
73516;BME280;61763;51.416;5.442;2022-12-29T09:30:38;100123.69;;;10.06;82.72
73516;BME280;61763;51.416;5.442;2022-12-29T09:33:03;100119.53;;;10.00;83.60
73516;BME280;61763;51.416;5.442;2022-12-29T09:35:28;100129.50;;;9.98;84.08
73516;BME280;61763;51.416;5.442;2022-12-29T09:37:54;100139.88;;;9.90;85.02
73516;BME280;61763;51.416;5.442;2022-12-29T09:40:32;100127.91;;;9.79;87.08
73516;BME280;61763;51.416;5.442;2022-12-29T09:51:24;100158.88;;;9.40;92.77
73516;BME280;61763;51.416;5.442;2022-12-29T09:53:58;100145.41;;;9.40;92.69
73516;BME280;61763;51.416;5.442;2022-12-29T09:56:24;100169.72;;;9.39;92.08
73516;BME280;61763;51.416;5.442;2022-12-29T09:59:14;100179.38;;;9.43;92.23
73516;BME280;61763;51.416;5.442;2022-12-29T10:01:49;100187.81;;;9.37;93.58
73516;BME280;61763;51.416;5.442;2022-12-29T10:04:17;100184.06;;;9.23;95.88
73516;BME280;61763;51.416;5.442;2022-12-29T10:06:50;100205.13;;;9.15;98.35
73516;BME280;61763;51.416;5.442;2022-12-29T10:09:29;100200.56;;;9.17;97.11
73516;BME280;61763;51.416;5.442;2022-12-29T10:20:33;100206.06;;;8.98;100.00
73516;BME280;61763;51.416;5.442;2022-12-29T10:25:41;100223.75;;;8.86;100.00
73516;BME280;61763;51.416;5.442;2022-12-29T10:28:46;100222.63;;;8.73;100.00
73516;BME280;61763;51.416;5.442;2022-12-29T10:31:18;100244.16;;;8.73;100.00
73516;BME280;61763;51.416;5.442;2022-12-29T10:33:49;100246.72;;;8.76;100.00
73516;BME280;61763;51.416;5.442;2022-12-29T10:36:25;100254.63;;;8.79;100.00
73516;BME280;61763;51.416;5.442;2022-12-29T10:39:01;100253.03;;;8.75;100.00
73516;BME280;61763;51.416;5.442;2022-12-29T10:41:40;100273.91;;;8.70;100.00
73516;BME280;61763;51.416;5.442;2022-12-29T10:44:09;100267.03;;;8.64;100.00
73516;BME280;61763;51.416;5.442;2022-12-29T10:46:37;100279.53;;;8.65;100.00
73516;BME280;61763;51.416;5.442;2022-12-29T10:49:04;100282.72;;;8.73;100.00
73516;BME280;61763;51.416;5.442;2022-12-29T10:51:37;100279.53;;;8.65;100.00
73516;BME280;61763;51.416;5.442;2022-12-29T10:54:10;100281.28;;;8.66;100.00
73516;BME280;61763;51.416;5.442;2022-12-29T10:56:42;100272.09;;;8.70;100.00
73516;BME280;61763;51.416;5.442;2022-12-29T11:04:56;100280.13;;;9.05;100.00
73516;BME280;61763;51.416;5.442;2022-12-29T11:07:24;100297.16;;;9.23;99.58
73516;BME280;61763;51.416;5.442;2022-12-29T11:09:51;100287.38;;;9.38;98.68
73516;BME280;61763;51.416;5.442;2022-12-29T11:12:30;100297.72;;;9.46;95.77
73516;BME280;61763;51.416;5.442;2022-12-29T11:17:47;100300.19;;;9.67;96.47
73516;BME280;61763;51.416;5.442;2022-12-29T11:22:52;100310.88;;;9.68;95.40
73516;BME280;61763;51.416;5.442;2022-12-29T11:25:17;100308.34;;;9.65;95.25
73516;BME280;61763;51.416;5.442;2022-12-29T11:27:59;100306.78;;;9.61;96.16
73516;BME280;61763;51.416;5.442;2022-12-29T11:30:30;100315.03;;;9.58;95.98
73516;BME280;61763;51.416;5.442;2022-12-29T11:32:56;100318.16;;;9.50;98.19
73516;BME280;61763;51.416;5.442;2022-12-29T11:35:39;100326.22;;;9.50;98.26
73516;BME280;61763;51.416;5.442;2022-12-29T11:38:57;100311.97;;;9.48;98.53
73516;BME280;61763;51.416;5.442;2022-12-29T11:40:57;100318.16;;;9.50;97.86
73516;BME280;61763;51.416;5.442;2022-12-29T11:43:33;100327.00;;;9.52;96.67
73516;BME280;61763;51.416;5.442;2022-12-29T11:46:00;100321.28;;;9.58;95.56
73516;BME280;61763;51.416;5.442;2022-12-29T11:48:31;100334.13;;;9.53;95.58
73516;BME280;61763;51.416;5.442;2022-12-29T11:50:58;100332.22;;;9.55;95.27
73516;BME280;61763;51.416;5.442;2022-12-29T11:53:53;100335.88;;;9.54;95.17
73516;BME280;61763;51.416;5.442;2022-12-29T11:56:20;100333.16;;;9.72;94.70
73516;BME280;61763;51.416;5.442;2022-12-29T11:58:49;100342.19;;;9.71;93.18
73516;BME280;61763;51.416;5.442;2022-12-29T12:04:01;100329.66;;;9.70;92.30
73516;BME280;61763;51.416;5.442;2022-12-29T12:06:28;100347.06;;;9.80;93.21
73516;BME280;61763;51.416;5.442;2022-12-29T12:09:05;100318.03;;;9.85;92.51
73516;BME280;61763;51.416;5.442;2022-12-29T12:11:37;100333.22;;;9.86;90.26
73516;BME280;61763;51.416;5.442;2022-12-29T12:17:05;100332.38;;;9.86;88.95
73516;BME280;61763;51.416;5.442;2022-12-29T12:19:56;100334.28;;;9.84;88.71
73516;BME280;61763;51.416;5.442;2022-12-29T12:22:29;100325.31;;;9.83;88.11
73516;BME280;61763;51.416;5.442;2022-12-29T12:27:43;100344.47;;;9.94;85.94
73516;BME280;61763;51.416;5.442;2022-12-29T12:30:17;100351.19;;;10.03;84.74
73516;BME280;61763;51.416;5.442;2022-12-29T12:46:03;100351.53;;;10.13;84.47
73516;BME280;61763;51.416;5.442;2022-12-29T12:54:10;100360.75;;;10.09;84.61
73516;BME280;61763;51.416;5.442;2022-12-29T12:59:48;100363.84;;;9.85;88.08
73516;BME280;61763;51.416;5.442;2022-12-29T13:15:57;100363.19;;;9.64;92.08
73516;BME280;61763;51.416;5.442;2022-12-29T13:18:21;100368.66;;;9.62;92.45
73516;BME280;61763;51.416;5.442;2022-12-29T13:20:54;100373.28;;;9.43;94.36
73516;BME280;61763;51.416;5.442;2022-12-29T13:26:31;100383.63;;;9.00;100.00
73516;BME280;61763;51.416;5.442;2022-12-29T13:29:08;100388.50;;;8.74;100.00
73516;BME280;61763;51.416;5.442;2022-12-29T13:31:52;100388.53;;;8.55;100.00
73516;BME280;61763;51.416;5.442;2022-12-29T13:37:29;100399.28;;;8.36;100.00
73516;BME280;61763;51.416;5.442;2022-12-29T13:40:11;100400.03;;;8.39;100.00
73516;BME280;61763;51.416;5.442;2022-12-29T13:42:39;100392.19;;;8.35;100.00
73516;BME280;61763;51.416;5.442;2022-12-29T13:45:09;100399.97;;;8.22;100.00
73516;BME280;61763;51.416;5.442;2022-12-29T13:50:36;100410.84;;;8.00;100.00
73516;BME280;61763;51.416;5.442;2022-12-29T13:56:25;100409.09;;;7.99;100.00
73516;BME280;61763;51.416;5.442;2022-12-29T13:59:11;100411.94;;;7.96;100.00
73516;BME280;61763;51.416;5.442;2022-12-29T14:04:23;100405.72;;;8.14;100.00
73516;BME280;61763;51.416;5.442;2022-12-29T14:07:18;100426.38;;;8.31;100.00
73516;BME280;61763;51.416;5.442;2022-12-29T14:09:54;100416.94;;;8.22;100.00
73516;BME280;61763;51.416;5.442;2022-12-29T14:14:51;100421.47;;;8.22;100.00
73516;BME280;61763;51.416;5.442;2022-12-29T14:17:20;100422.84;;;8.31;100.00
73516;BME280;61763;51.416;5.442;2022-12-29T14:19:47;100424.63;;;8.30;100.00
73516;BME280;61763;51.416;5.442;2022-12-29T14:22:23;100420.94;;;8.33;100.00
73516;BME280;61763;51.416;5.442;2022-12-29T14:24:49;100403.88;;;8.34;100.00
73516;BME280;61763;51.416;5.442;2022-12-29T14:34:50;100422.84;;;8.31;100.00
73516;BME280;61763;51.416;5.442;2022-12-29T14:37:34;100426.25;;;8.34;100.00
73516;BME280;61763;51.416;5.442;2022-12-29T14:42:44;100420.94;;;8.33;100.00
73516;BME280;61763;51.416;5.442;2022-12-29T14:47:41;100431.78;;;8.31;100.00
73516;BME280;61763;51.416;5.442;2022-12-29T14:57:42;100450.13;;;8.21;100.00
73516;BME280;61763;51.416;5.442;2022-12-29T15:05:51;100441.56;;;8.13;100.00
73516;BME280;61763;51.416;5.442;2022-12-29T15:08:20;100445.88;;;8.17;100.00
73516;BME280;61763;51.416;5.442;2022-12-29T15:11:12;100464.84;;;8.14;100.00
73516;BME280;61763;51.416;5.442;2022-12-29T15:13:41;100469.47;;;8.11;100.00
73516;BME280;61763;51.416;5.442;2022-12-29T15:16:25;100455.94;;;8.12;100.00
73516;BME280;61763;51.416;5.442;2022-12-29T15:18:52;100466.91;;;8.07;100.00
73516;BME280;61763;51.416;5.442;2022-12-29T15:21:24;100473.09;;;8.10;100.00
73516;BME280;61763;51.416;5.442;2022-12-29T15:23:52;100482.31;;;8.04;100.00
73516;BME280;61763;51.416;5.442;2022-12-29T15:26:17;100486.31;;;7.95;100.00
73516;BME280;61763;51.416;5.442;2022-12-29T15:28:49;100491.28;;;7.84;100.00
73516;BME280;61763;51.416;5.442;2022-12-29T15:31:19;100490.50;;;7.82;100.00
73516;BME280;61763;51.416;5.442;2022-12-29T15:33:48;100490.59;;;7.79;100.00
73516;BME280;61763;51.416;5.442;2022-12-29T15:36:19;100497.22;;;7.71;100.00
73516;BME280;61763;51.416;5.442;2022-12-29T15:38:47;100489.09;;;7.73;100.00
73516;BME280;61763;51.416;5.442;2022-12-29T15:47:00;100501.31;;;7.60;100.00
73516;BME280;61763;51.416;5.442;2022-12-29T15:49:26;100496.25;;;7.52;100.00
73516;BME280;61763;51.416;5.442;2022-12-29T15:51:52;100482.88;;;7.50;100.00
73516;BME280;61763;51.416;5.442;2022-12-29T15:54:19;100491.34;;;7.41;100.00
73516;BME280;61763;51.416;5.442;2022-12-29T15:56:45;100502.41;;;7.33;100.00